Portada
METAR-TAF:

METAR-TAF

Aeroports :

Taraz, Kazakhstan

latitud: 42-51-13N, longitud: 071-18-13E, altitud: 666 m

Observació

L'informe es va fer fa 31 minuts, a les 21:30 UTC
Vent calma
Temperatura -7°C
Humitat 93%
Pressió 1026 hPa
Visibilitat: 7000 m
Cel ennuvolat a una alçada de 300 ft
Cel cobert a una alçada de 4600 ft

METAR: UADD 212130Z 00000MPS 7000 BKN003 OVC046 M07/M08 Q1026 R13/491032 NOSIG RMK QBB100 MT OBSC QFE712/0949

Hora: 04:01 (22:01 UTC)

Pronòstic

L'informe es va fer fa 2 hores i 1 minuts, a les 20:00 UTC
Pronòstic vàlid del 21 a les 21 UTC al 22 a les 06 UTC
Vent 6 kt del Nord-Oest amb ràfegues de 16 kt
Visibilitat: 3100 m
Cel ennuvolat a una alçada de 300 ft
Cel cobert a una alçada de 2000 ft
neu, boirina
Temporalment
l' 22 a les 00 UTC al 22 a les 06 UTC
Visibilitat: 0550 m
a una alçada de 200 ft
boira gebradora

TAF: UADD 212000Z 2121/2206 32003G08MPS 3100 -SN BR BKN003 OVC020 TEMPO 2200/2206 0550 FZFG VV002

Observacions i pronòstics meteorològics de més de 4000 aeroports (METAR i TAF).

Les estacions disponibles són els punts grocs i vermells al mapa.

Posi el ratolí al punt desitjat per veure el nom de l'estació.

Feu clic per veure les observacions i els pronòstics meteorològics.

Per canviar el mapa: feu clic els botons verds amb una creu de color negre per apropar; al botó verd amb un guió per allunyar la imatge; o en les fletxes verdes per a mapes adjacents.


METAR-TAF: